createdAt,value
2023-03-17T00:00:47.040Z,17.35
2023-03-17T00:03:25.631Z,16.95
2023-03-17T00:05:55.053Z,22.67
2023-03-17T00:08:27.297Z,18.30
2023-03-17T00:10:55.892Z,13.48
2023-03-17T00:13:23.557Z,14.18
2023-03-17T00:15:56.481Z,15.80
2023-03-17T00:18:24.658Z,13.88
2023-03-17T00:20:52.382Z,18.70
2023-03-17T00:23:23.827Z,22.05
2023-03-17T00:25:52.918Z,28.98
2023-03-17T00:28:25.003Z,34.05
2023-03-17T00:30:59.197Z,35.83
2023-03-17T00:33:32.526Z,26.55
2023-03-17T00:36:00.761Z,24.05
2023-03-17T00:38:29.113Z,22.20
2023-03-17T00:40:58.884Z,20.65
2023-03-17T00:43:26.912Z,21.50
2023-03-17T00:45:54.831Z,21.07
2023-03-17T00:48:23.709Z,22.70
2023-03-17T00:50:51.377Z,18.42
2023-03-17T00:53:22.663Z,20.95
2023-03-17T00:55:50.396Z,21.55
2023-03-17T00:58:31.270Z,22.27
2023-03-17T01:00:59.400Z,25.35
2023-03-17T01:03:28.198Z,23.55
2023-03-17T01:05:57.366Z,24.43
2023-03-17T01:08:26.513Z,23.85
2023-03-17T01:10:54.382Z,39.35
2023-03-17T01:13:22.583Z,25.43
2023-03-17T01:15:51.536Z,29.55
2023-03-17T01:18:22.173Z,42.40
2023-03-17T01:20:52.767Z,43.73
2023-03-17T01:23:21.614Z,32.85
2023-03-17T01:25:49.684Z,32.00
2023-03-17T01:28:20.176Z,23.83
2023-03-17T01:30:48.734Z,19.80
2023-03-17T01:33:18.565Z,16.70
2023-03-17T01:35:46.638Z,18.82
2023-03-17T01:38:15.409Z,15.30
2023-03-17T01:40:50.400Z,16.70
2023-03-17T01:43:28.826Z,14.83
2023-03-17T01:46:26.890Z,15.30
2023-03-17T01:49:18.873Z,27.87
2023-03-17T01:52:09.514Z,24.18
2023-03-17T01:54:58.666Z,29.67
2023-03-17T01:57:45.199Z,30.80
2023-03-17T02:00:18.128Z,21.15
2023-03-17T02:02:53.526Z,20.62
2023-03-17T02:05:25.496Z,17.62
2023-03-17T02:07:55.177Z,13.85
2023-03-17T02:10:28.131Z,10.78
2023-03-17T02:13:01.780Z,9.35
2023-03-17T02:15:38.692Z,9.23
2023-03-17T02:18:07.041Z,8.05
2023-03-17T02:20:42.087Z,7.80
2023-03-17T02:23:10.289Z,7.67
2023-03-17T02:25:39.310Z,7.62
2023-03-17T02:28:18.548Z,13.75
2023-03-17T02:30:46.344Z,10.20
2023-03-17T02:33:16.076Z,9.05
2023-03-17T02:35:43.819Z,11.33
2023-03-17T02:38:12.881Z,10.80
2023-03-17T02:40:41.436Z,11.75
2023-03-17T02:43:15.171Z,9.00
2023-03-17T02:45:44.338Z,11.95
2023-03-17T02:48:22.586Z,13.72
2023-03-17T02:50:51.562Z,14.40
2023-03-17T02:53:21.826Z,13.30
2023-03-17T02:55:50.292Z,10.90
2023-03-17T02:58:19.164Z,11.88
2023-03-17T03:00:54.444Z,8.83
2023-03-17T03:03:23.316Z,11.57
2023-03-17T03:05:52.486Z,9.88
2023-03-17T03:08:21.507Z,9.40
2023-03-17T03:10:49.182Z,13.62
2023-03-17T03:13:16.960Z,20.48
2023-03-17T03:15:44.685Z,38.50
2023-03-17T03:18:12.616Z,57.53
2023-03-17T03:20:43.915Z,55.38
2023-03-17T03:23:13.233Z,61.65
2023-03-17T03:25:42.059Z,55.38
2023-03-17T03:28:10.065Z,47.17
2023-03-17T03:30:38.052Z,47.05
2023-03-17T03:33:06.275Z,43.65
2023-03-17T03:35:34.824Z,37.10
2023-03-17T03:38:03.019Z,40.92
2023-03-17T03:40:31.146Z,26.93
2023-03-17T03:42:59.191Z,25.37
2023-03-17T03:45:26.846Z,20.95
2023-03-17T03:47:55.042Z,17.62
2023-03-17T03:50:23.622Z,17.73
2023-03-17T03:52:51.414Z,18.55
2023-03-17T03:55:19.479Z,21.10
2023-03-17T03:57:47.295Z,24.67
2023-03-17T04:00:17.111Z,27.73
2023-03-17T04:02:46.204Z,25.72
2023-03-17T04:05:18.224Z,23.92
2023-03-17T04:07:47.499Z,34.03
2023-03-17T04:10:16.418Z,18.75
2023-03-17T04:12:44.191Z,24.12
2023-03-17T04:15:15.605Z,31.12
2023-03-17T04:17:44.223Z,33.23
2023-03-17T04:20:13.892Z,35.15
2023-03-17T04:22:42.493Z,30.57
2023-03-17T04:25:13.851Z,38.10
2023-03-17T04:27:42.755Z,38.83
2023-03-17T04:30:14.089Z,39.55
2023-03-17T04:32:41.846Z,53.75
2023-03-17T04:35:13.927Z,46.73
2023-03-17T04:37:41.970Z,49.15
2023-03-17T04:40:12.024Z,40.10
2023-03-17T04:42:40.212Z,33.18
2023-03-17T04:45:12.234Z,33.53
2023-03-17T04:47:40.144Z,41.13
2023-03-17T04:50:09.830Z,30.32
2023-03-17T04:52:38.311Z,28.30
2023-03-17T04:55:07.786Z,37.00
2023-03-17T04:57:36.673Z,43.02
2023-03-17T05:00:07.012Z,33.42
2023-03-17T05:02:34.876Z,35.58
2023-03-17T05:05:02.965Z,37.40
2023-03-17T05:07:32.821Z,21.87
2023-03-17T05:10:00.372Z,20.50
2023-03-17T05:12:28.290Z,13.93
2023-03-17T05:14:56.080Z,17.48
2023-03-17T05:17:23.763Z,16.82
2023-03-17T05:19:51.493Z,26.17
2023-03-17T05:22:19.254Z,31.65
2023-03-17T05:24:47.072Z,19.55
2023-03-17T05:27:15.045Z,19.85
2023-03-17T05:29:42.675Z,19.30
2023-03-17T05:32:10.299Z,28.02
2023-03-17T05:34:37.960Z,18.07
2023-03-17T05:37:07.116Z,23.12
2023-03-17T05:39:34.938Z,22.60
2023-03-17T05:42:02.867Z,28.20
2023-03-17T05:44:30.548Z,33.48
2023-03-17T05:46:59.358Z,35.50
2023-03-17T05:49:27.929Z,29.57
2023-03-17T05:51:55.941Z,23.20
2023-03-17T05:54:23.733Z,18.50
2023-03-17T05:56:51.839Z,19.73
2023-03-17T05:59:20.205Z,19.52
2023-03-17T06:01:47.973Z,19.12
2023-03-17T06:04:15.880Z,13.32
2023-03-17T06:06:43.496Z,15.90
2023-03-17T06:09:10.941Z,12.60
2023-03-17T06:11:38.564Z,13.22
2023-03-17T06:14:06.826Z,12.75
2023-03-17T06:16:34.393Z,17.27
2023-03-17T06:19:02.029Z,14.73
2023-03-17T06:21:29.730Z,15.55
2023-03-17T06:23:57.220Z,14.50
2023-03-17T06:26:26.682Z,12.33
2023-03-17T06:28:54.506Z,11.65
2023-03-17T06:31:22.970Z,18.87
2023-03-17T06:33:51.113Z,16.12
2023-03-17T06:36:18.844Z,11.85
2023-03-17T06:38:46.618Z,16.80
2023-03-17T06:41:14.491Z,16.67
2023-03-17T06:43:42.151Z,17.55
2023-03-17T06:46:10.045Z,12.50
2023-03-17T06:48:37.865Z,13.68
2023-03-17T06:51:06.692Z,13.45
2023-03-17T06:53:34.336Z,14.50
2023-03-17T06:56:04.354Z,25.05
2023-03-17T06:58:32.746Z,11.75
2023-03-17T07:01:00.496Z,13.45
2023-03-17T07:03:28.483Z,11.63
2023-03-17T07:05:56.200Z,12.23
2023-03-17T07:08:23.854Z,12.55
2023-03-17T07:10:56.971Z,15.45
2023-03-17T07:13:25.352Z,13.60
2023-03-17T07:15:55.363Z,16.50
2023-03-17T07:18:23.139Z,11.75
2023-03-17T07:20:50.772Z,10.88
2023-03-17T07:23:23.291Z,13.15
2023-03-17T07:25:52.121Z,7.95
2023-03-17T07:28:21.254Z,5.33
2023-03-17T07:30:49.654Z,7.45
2023-03-17T07:33:20.477Z,5.60
2023-03-17T07:35:49.395Z,7.95
2023-03-17T07:38:18.612Z,7.80
2023-03-17T07:40:48.679Z,8.10
2023-03-17T07:43:17.164Z,7.87
2023-03-17T07:45:46.547Z,3.25
2023-03-17T07:48:14.217Z,4.62
2023-03-17T07:50:42.553Z,3.95
2023-03-17T07:53:10.420Z,6.10
2023-03-17T07:55:38.391Z,5.97
2023-03-17T07:58:07.049Z,6.03
2023-03-17T08:00:35.399Z,5.03
2023-03-17T08:03:10.441Z,5.97
2023-03-17T08:05:34.022Z,5.67
2023-03-17T08:08:01.732Z,6.37
2023-03-17T08:10:29.957Z,4.45
2023-03-17T08:12:58.221Z,4.50
2023-03-17T08:15:26.028Z,5.45
2023-03-17T08:17:53.774Z,4.47
2023-03-17T08:20:21.590Z,5.95
2023-03-17T08:22:49.208Z,5.42
2023-03-17T08:25:17.293Z,7.15
2023-03-17T08:27:44.976Z,7.95
2023-03-17T08:30:14.105Z,4.28
2023-03-17T08:32:42.520Z,7.20
2023-03-17T08:35:15.665Z,5.00
2023-03-17T08:37:44.249Z,3.02
2023-03-17T08:40:17.413Z,4.55
2023-03-17T08:42:47.342Z,4.87
2023-03-17T08:45:17.675Z,3.45
2023-03-17T08:47:47.061Z,4.20
2023-03-17T08:50:21.944Z,2.75
2023-03-17T08:52:51.662Z,4.95
2023-03-17T08:55:19.564Z,6.78
2023-03-17T08:57:48.143Z,2.58
2023-03-17T09:00:19.865Z,1.98
2023-03-17T09:02:49.351Z,1.85
2023-03-17T09:05:18.945Z,2.52
2023-03-17T09:07:49.103Z,6.08
2023-03-17T09:10:18.832Z,2.70
2023-03-17T09:12:46.975Z,3.58
2023-03-17T09:15:15.040Z,2.25
2023-03-17T09:17:43.644Z,3.20
2023-03-17T09:20:13.252Z,3.37
2023-03-17T09:22:40.959Z,4.95
2023-03-17T09:25:09.423Z,2.52
2023-03-17T09:27:37.091Z,2.12
2023-03-17T09:30:06.193Z,2.92
2023-03-17T09:32:33.960Z,4.53
2023-03-17T09:35:01.993Z,3.62
2023-03-17T09:37:30.591Z,3.58
2023-03-17T09:39:58.261Z,2.02
2023-03-17T09:42:43.288Z,2.62
2023-03-17T09:45:21.982Z,2.45
2023-03-17T09:48:09.757Z,4.67
2023-03-17T09:50:51.605Z,2.62
2023-03-17T09:53:31.973Z,1.65
2023-03-17T09:56:04.431Z,4.58
2023-03-17T09:58:33.984Z,2.85
2023-03-17T10:01:04.863Z,2.05
2023-03-17T10:03:34.343Z,4.22
2023-03-17T10:06:25.616Z,3.92
2023-03-17T10:09:27.051Z,2.72
2023-03-17T10:12:12.001Z,4.75
2023-03-17T10:15:06.451Z,4.08
2023-03-17T10:17:40.953Z,3.80
2023-03-17T10:20:20.537Z,2.85
2023-03-17T10:23:01.272Z,5.40
2023-03-17T10:25:33.542Z,3.65
2023-03-17T10:28:13.991Z,2.65
2023-03-17T10:30:43.422Z,4.72
2023-03-17T10:33:12.065Z,3.50
2023-03-17T10:35:40.031Z,4.15
2023-03-17T10:38:23.041Z,2.33
2023-03-17T10:41:02.623Z,3.87
2023-03-17T10:43:41.532Z,2.75
2023-03-17T10:46:23.899Z,3.70
2023-03-17T10:48:57.842Z,3.15
2023-03-17T10:51:31.426Z,5.17
2023-03-17T10:54:09.370Z,3.50
2023-03-17T10:56:41.759Z,2.37
2023-03-17T11:02:00.947Z,2.70
2023-03-17T11:04:39.269Z,2.80
2023-03-17T11:07:16.912Z,1.47
2023-03-17T11:09:50.198Z,4.58
2023-03-17T11:12:38.069Z,6.78
2023-03-17T11:15:16.138Z,3.90
2023-03-17T11:18:01.152Z,3.15
2023-03-17T11:20:49.588Z,4.30
2023-03-17T11:23:43.820Z,1.85
2023-03-17T11:26:58.582Z,3.95
2023-03-17T11:30:00.730Z,2.42
2023-03-17T11:32:41.019Z,1.70
2023-03-17T11:35:31.005Z,11.48
2023-03-17T11:38:24.537Z,3.22
2023-03-17T11:41:16.722Z,3.60
2023-03-17T11:44:22.203Z,4.10
2023-03-17T11:47:01.477Z,2.92
2023-03-17T11:49:38.384Z,2.98
2023-03-17T11:52:21.473Z,3.20
2023-03-17T11:55:27.542Z,2.93
2023-03-17T11:58:11.011Z,2.77
2023-03-17T12:00:52.215Z,2.90
2023-03-17T12:03:38.421Z,3.33
2023-03-17T12:06:15.077Z,2.25
2023-03-17T12:09:00.062Z,2.35
2023-03-17T12:11:31.328Z,3.60
2023-03-17T12:14:07.347Z,7.40
2023-03-17T12:16:49.578Z,11.80
2023-03-17T12:19:27.915Z,9.85
2023-03-17T12:22:10.276Z,2.33
2023-03-17T12:24:50.037Z,2.90
2023-03-17T12:27:29.394Z,1.80
2023-03-17T12:30:06.011Z,2.08
2023-03-17T12:32:45.493Z,1.70
2023-03-17T12:35:28.659Z,2.67
2023-03-17T12:38:00.824Z,2.70
2023-03-17T12:40:45.925Z,15.15
2023-03-17T12:43:36.766Z,3.25
2023-03-17T12:46:37.405Z,3.40
2023-03-17T12:49:28.489Z,4.28
2023-03-17T12:52:31.547Z,3.12
2023-03-17T12:55:03.428Z,4.95
2023-03-17T12:57:41.295Z,4.20
2023-03-17T13:00:29.186Z,3.22
2023-03-17T13:03:17.126Z,2.02
2023-03-17T13:05:52.389Z,2.47
2023-03-17T13:08:37.552Z,1.90
2023-03-17T13:11:40.320Z,2.05
2023-03-17T13:14:35.704Z,2.02
2023-03-17T13:17:19.803Z,9.08
2023-03-17T13:20:11.445Z,3.22
2023-03-17T13:22:43.870Z,3.62
2023-03-17T13:25:40.956Z,3.25
2023-03-17T13:28:16.889Z,3.75
2023-03-17T13:31:20.569Z,3.90
2023-03-17T13:33:52.740Z,2.30
2023-03-17T13:36:59.889Z,4.75
2023-03-17T13:39:59.017Z,3.12
2023-03-17T13:42:35.082Z,3.55
2023-03-17T13:45:38.053Z,37.00
2023-03-17T13:48:37.735Z,2.55
2023-03-17T13:51:15.238Z,3.12
2023-03-17T13:53:56.922Z,4.33
2023-03-17T13:56:45.091Z,2.45
2023-03-17T13:59:21.485Z,3.20
2023-03-17T14:02:03.996Z,3.17
2023-03-17T14:04:44.251Z,3.98
2023-03-17T14:07:16.743Z,4.17
2023-03-17T14:09:44.986Z,4.15
2023-03-17T14:12:30.032Z,4.12
2023-03-17T14:15:18.421Z,2.85
2023-03-17T14:17:51.812Z,3.75
2023-03-17T14:20:23.767Z,5.35
2023-03-17T14:23:01.478Z,3.17
2023-03-17T14:25:36.665Z,5.28
2023-03-17T14:28:11.446Z,3.22
2023-03-17T14:30:39.228Z,3.98
2023-03-17T14:33:23.187Z,3.12
2023-03-17T14:38:31.202Z,3.50
2023-03-17T14:41:06.530Z,4.58
2023-03-17T14:43:36.144Z,4.40
2023-03-17T14:46:07.587Z,5.75
2023-03-17T14:48:39.022Z,4.92
2023-03-17T14:51:11.799Z,3.22
2023-03-17T14:53:42.768Z,3.05
2023-03-17T14:56:10.908Z,5.25
2023-03-17T14:58:44.544Z,4.08
2023-03-17T15:01:19.662Z,4.90
2023-03-17T15:04:18.386Z,2.85
2023-03-17T15:06:59.587Z,4.50
2023-03-17T15:09:38.001Z,4.03
2023-03-17T15:12:26.206Z,4.58
2023-03-17T15:14:58.267Z,3.65
2023-03-17T15:17:33.094Z,6.67
2023-03-17T15:20:13.042Z,3.60
2023-03-17T15:22:47.959Z,4.58
2023-03-17T15:25:33.456Z,5.75
2023-03-17T15:28:01.336Z,3.00
2023-03-17T15:30:37.371Z,5.17
2023-03-17T15:33:02.761Z,4.95
2023-03-17T15:35:31.687Z,3.87
2023-03-17T15:37:59.340Z,8.55
2023-03-17T15:40:27.069Z,11.95
2023-03-17T15:42:54.638Z,6.90
2023-03-17T15:45:22.286Z,4.33
2023-03-17T15:47:49.957Z,6.30
2023-03-17T15:50:26.001Z,5.15
2023-03-17T15:52:55.433Z,4.72
2023-03-17T15:55:30.635Z,9.73
2023-03-17T15:58:00.154Z,8.63
2023-03-17T16:00:29.094Z,18.70
2023-03-17T16:03:02.172Z,12.93
2023-03-17T16:05:33.613Z,15.77
2023-03-17T16:08:01.788Z,20.37
2023-03-17T16:10:32.212Z,22.10
2023-03-17T16:13:00.088Z,17.70
2023-03-17T16:15:31.831Z,19.05
2023-03-17T16:18:03.623Z,12.20
2023-03-17T16:20:44.836Z,12.90
2023-03-17T16:23:16.827Z,14.15
2023-03-17T16:25:45.579Z,16.95
2023-03-17T16:28:23.938Z,18.50
2023-03-17T16:30:54.156Z,17.55
2023-03-17T16:33:32.774Z,17.07
2023-03-17T16:36:01.007Z,17.35
2023-03-17T16:38:32.308Z,20.95
2023-03-17T16:41:07.271Z,19.37
2023-03-17T16:43:38.124Z,24.43
2023-03-17T16:46:07.214Z,30.70
2023-03-17T16:48:35.256Z,71.95
2023-03-17T16:51:04.100Z,65.50
2023-03-17T16:53:31.648Z,54.53
2023-03-17T16:55:59.762Z,51.20
2023-03-17T16:58:36.272Z,45.43
2023-03-17T17:01:14.840Z,46.95
2023-03-17T17:03:44.081Z,42.62
2023-03-17T17:06:16.428Z,37.28
2023-03-17T17:08:45.747Z,27.90
2023-03-17T17:11:15.300Z,32.98
2023-03-17T17:13:46.396Z,33.80
2023-03-17T17:16:28.318Z,49.98
2023-03-17T17:18:56.786Z,58.52
2023-03-17T17:21:25.790Z,59.67
2023-03-17T17:23:53.757Z,69.37
2023-03-17T17:26:22.456Z,87.10
2023-03-17T17:28:50.558Z,71.17
2023-03-17T17:31:18.320Z,64.07
2023-03-17T17:33:46.134Z,71.33
2023-03-17T17:36:16.292Z,71.25
2023-03-17T17:38:45.903Z,67.45
2023-03-17T17:41:15.967Z,58.48
2023-03-17T17:43:45.706Z,83.45
2023-03-17T17:46:18.922Z,98.07
2023-03-17T17:48:47.811Z,130.60
2023-03-17T17:51:16.038Z,116.73
2023-03-17T17:53:44.189Z,101.87
2023-03-17T17:56:17.219Z,109.90
2023-03-17T17:58:45.288Z,100.70
2023-03-17T18:01:15.217Z,96.45
2023-03-17T18:03:43.097Z,97.55
2023-03-17T18:06:12.644Z,92.70
2023-03-17T18:08:42.844Z,90.03
2023-03-17T18:11:11.429Z,78.33
2023-03-17T18:13:39.692Z,86.45
2023-03-17T18:16:09.439Z,96.28
2023-03-17T18:18:38.968Z,89.00
2023-03-17T18:21:07.706Z,92.35
2023-03-17T18:23:36.175Z,80.57
2023-03-17T18:26:05.729Z,78.40
2023-03-17T18:28:33.495Z,58.35
2023-03-17T18:31:10.106Z,64.50
2023-03-17T18:33:40.364Z,52.08
2023-03-17T18:36:08.945Z,50.63
2023-03-17T18:38:37.522Z,54.33
2023-03-17T18:41:07.657Z,71.10
2023-03-17T18:43:35.515Z,59.73
2023-03-17T18:46:03.779Z,80.90
2023-03-17T18:48:31.577Z,81.12
2023-03-17T18:50:59.107Z,94.00
2023-03-17T18:53:27.325Z,61.10
2023-03-17T18:55:56.908Z,115.12
2023-03-17T18:58:25.105Z,83.78
2023-03-17T19:01:01.342Z,65.85
2023-03-17T19:03:31.599Z,56.88
2023-03-17T19:06:10.291Z,64.30
2023-03-17T19:08:38.149Z,53.55
2023-03-17T19:11:11.647Z,56.70
2023-03-17T19:13:39.591Z,58.63
2023-03-17T19:16:08.952Z,60.40
2023-03-17T19:18:40.272Z,64.07
2023-03-17T19:21:09.182Z,75.05
2023-03-17T19:23:37.863Z,80.28
2023-03-17T19:26:07.068Z,121.20
2023-03-17T19:28:34.765Z,122.15
2023-03-17T19:31:02.345Z,123.15
2023-03-17T19:33:31.884Z,135.80
2023-03-17T19:36:01.955Z,126.58
2023-03-17T19:38:29.845Z,116.70
2023-03-17T19:40:57.774Z,106.15
2023-03-17T19:43:39.350Z,109.55
2023-03-17T19:45:56.919Z,119.65
2023-03-17T19:48:24.885Z,107.17
2023-03-17T19:50:52.668Z,108.42
2023-03-17T19:53:20.446Z,98.37
2023-03-17T19:55:48.258Z,86.90
2023-03-17T19:58:17.066Z,84.45
2023-03-17T20:00:45.185Z,133.85
2023-03-17T20:03:14.439Z,156.60
2023-03-17T20:05:44.719Z,135.20
2023-03-17T20:08:14.017Z,116.60
2023-03-17T20:10:41.832Z,104.23
2023-03-17T20:13:09.887Z,83.05
2023-03-17T20:15:37.879Z,81.82
2023-03-17T20:18:05.671Z,73.00
2023-03-17T20:20:33.722Z,60.45
2023-03-17T20:23:01.663Z,82.15
2023-03-17T20:25:29.410Z,78.20
2023-03-17T20:27:57.133Z,58.25
2023-03-17T20:30:24.902Z,38.98
2023-03-17T20:32:52.436Z,31.52
2023-03-17T20:35:20.395Z,31.17
2023-03-17T20:37:47.929Z,30.62
2023-03-17T20:40:15.663Z,31.42
2023-03-17T20:42:43.838Z,26.82
2023-03-17T20:45:11.470Z,26.73
2023-03-17T20:47:40.586Z,26.35
2023-03-17T20:50:09.748Z,23.73
2023-03-17T20:52:37.652Z,19.05
2023-03-17T20:55:07.914Z,23.98
2023-03-17T20:57:36.289Z,26.90
2023-03-17T21:00:05.012Z,18.65
2023-03-17T21:02:32.669Z,18.45
2023-03-17T21:05:00.440Z,22.40
2023-03-17T21:07:28.115Z,18.07
2023-03-17T21:09:56.235Z,18.02
2023-03-17T21:12:24.174Z,23.27
2023-03-17T21:14:52.861Z,23.87
2023-03-17T21:17:22.264Z,23.70
2023-03-17T21:19:50.400Z,21.07
2023-03-17T21:22:18.130Z,15.85
2023-03-17T21:24:46.119Z,19.62
2023-03-17T21:27:13.854Z,16.23
2023-03-17T21:29:41.532Z,15.38
2023-03-17T21:32:09.873Z,25.85
2023-03-17T21:34:37.871Z,23.20
2023-03-17T21:37:05.787Z,26.68
2023-03-17T21:39:33.600Z,22.73
2023-03-17T21:42:01.598Z,22.07
2023-03-17T21:44:29.604Z,31.85
2023-03-17T21:46:57.481Z,26.70
2023-03-17T21:49:25.493Z,23.38
2023-03-17T21:51:54.295Z,27.10
2023-03-17T21:54:22.165Z,26.40
2023-03-17T21:56:50.529Z,22.00
2023-03-17T21:59:20.178Z,22.98
2023-03-17T22:01:49.990Z,29.25
2023-03-17T22:04:17.790Z,25.32
2023-03-17T22:06:45.779Z,38.40
2023-03-17T22:09:19.076Z,28.75
2023-03-17T22:11:46.274Z,28.63
2023-03-17T22:14:15.957Z,20.12
2023-03-17T22:16:43.668Z,22.52
2023-03-17T22:19:12.103Z,23.27
2023-03-17T22:21:40.165Z,28.27
2023-03-17T22:24:08.645Z,30.62
2023-03-17T22:26:36.435Z,28.10
2023-03-17T22:29:04.539Z,38.08
2023-03-17T22:31:32.323Z,31.62
2023-03-17T22:34:00.650Z,22.62
2023-03-17T22:36:29.742Z,23.00
2023-03-17T22:38:58.101Z,20.00
2023-03-17T22:41:29.167Z,26.23
2023-03-17T22:43:57.823Z,21.85
2023-03-17T22:46:25.507Z,26.33
2023-03-17T22:48:53.450Z,25.85
2023-03-17T22:51:26.023Z,14.58
2023-03-17T22:53:54.278Z,15.98
2023-03-17T22:56:22.312Z,15.40
2023-03-17T22:58:49.743Z,13.35
2023-03-17T23:01:19.790Z,14.93
2023-03-17T23:03:47.876Z,17.02
2023-03-17T23:06:15.663Z,13.70
2023-03-17T23:08:45.287Z,16.30
2023-03-17T23:11:21.760Z,19.62
2023-03-17T23:13:50.923Z,16.65
2023-03-17T23:16:19.816Z,12.28
2023-03-17T23:18:47.988Z,15.90
2023-03-17T23:21:29.314Z,15.23
2023-03-17T23:23:57.744Z,16.42
2023-03-17T23:26:25.373Z,21.60
2023-03-17T23:28:53.560Z,14.63
2023-03-17T23:31:22.046Z,16.52
2023-03-17T23:33:50.786Z,11.88
2023-03-17T23:36:19.065Z,11.45
2023-03-17T23:38:48.207Z,12.55
2023-03-17T23:41:16.971Z,12.07
2023-03-17T23:43:46.290Z,12.53
2023-03-17T23:46:14.223Z,12.15
2023-03-17T23:48:43.066Z,12.95
2023-03-17T23:51:13.746Z,13.50
2023-03-17T23:53:41.761Z,14.43
2023-03-17T23:56:12.517Z,14.10
2023-03-17T23:58:42.737Z,12.95
